sensor_id;sensor_type;location;lat;lon;timestamp;pressure;altitude;pressure_sealevel;temperature;humidity
10832;BME280;5469;48.574;8.768;2022-07-18T00:01:47;95658.38;;;23.60;30.78
10832;BME280;5469;48.574;8.768;2022-07-18T00:04:40;95650.31;;;23.72;30.52
10832;BME280;5469;48.574;8.768;2022-07-18T00:07:17;95656.63;;;23.88;30.37
10832;BME280;5469;48.574;8.768;2022-07-18T00:09:51;95659.13;;;23.48;31.09
10832;BME280;5469;48.574;8.768;2022-07-18T00:15:23;95656.13;;;23.28;31.58
10832;BME280;5469;48.574;8.768;2022-07-18T00:18:00;95653.13;;;23.30;31.55
10832;BME280;5469;48.574;8.768;2022-07-18T00:20:35;95657.44;;;23.43;31.14
10832;BME280;5469;48.574;8.768;2022-07-18T00:23:12;95656.03;;;23.25;31.61
10832;BME280;5469;48.574;8.768;2022-07-18T00:25:46;95653.16;;;23.09;32.16
10832;BME280;5469;48.574;8.768;2022-07-18T00:28:24;95662.47;;;23.32;31.50
10832;BME280;5469;48.574;8.768;2022-07-18T00:30:58;95662.72;;;23.06;32.40
10832;BME280;5469;48.574;8.768;2022-07-18T00:33:34;95667.00;;;23.07;31.90
10832;BME280;5469;48.574;8.768;2022-07-18T00:36:09;95658.47;;;23.18;31.34
10832;BME280;5469;48.574;8.768;2022-07-18T00:38:46;95659.09;;;23.02;31.61
10832;BME280;5469;48.574;8.768;2022-07-18T00:41:20;95664.09;;;23.13;31.41
10832;BME280;5469;48.574;8.768;2022-07-18T00:44:00;95658.31;;;22.93;31.71
10832;BME280;5469;48.574;8.768;2022-07-18T00:46:33;95654.44;;;22.82;32.39
10832;BME280;5469;48.574;8.768;2022-07-18T00:49:15;95656.06;;;22.83;32.42
10832;BME280;5469;48.574;8.768;2022-07-18T00:51:53;95647.47;;;22.81;31.71
10832;BME280;5469;48.574;8.768;2022-07-18T00:54:27;95646.03;;;23.04;31.22
10832;BME280;5469;48.574;8.768;2022-07-18T00:57:06;95637.78;;;23.01;31.35
10832;BME280;5469;48.574;8.768;2022-07-18T00:59:41;95642.78;;;22.90;31.48
10832;BME280;5469;48.574;8.768;2022-07-18T01:02:32;95634.97;;;22.97;31.26
10832;BME280;5469;48.574;8.768;2022-07-18T01:05:06;95640.38;;;22.97;31.07
10832;BME280;5469;48.574;8.768;2022-07-18T01:08:06;95645.75;;;22.55;32.03
10832;BME280;5469;48.574;8.768;2022-07-18T01:10:43;95640.34;;;22.34;32.35
10832;BME280;5469;48.574;8.768;2022-07-18T01:13:22;95636.25;;;22.49;32.58
10832;BME280;5469;48.574;8.768;2022-07-18T01:15:56;95639.41;;;22.51;32.06
10832;BME280;5469;48.574;8.768;2022-07-18T01:18:51;95647.06;;;22.49;32.56
10832;BME280;5469;48.574;8.768;2022-07-18T01:21:32;95632.72;;;22.57;31.88
10832;BME280;5469;48.574;8.768;2022-07-18T01:24:09;95633.63;;;22.61;31.89
10832;BME280;5469;48.574;8.768;2022-07-18T01:26:46;95633.09;;;22.26;32.28
10832;BME280;5469;48.574;8.768;2022-07-18T01:29:26;95631.50;;;22.46;31.71
10832;BME280;5469;48.574;8.768;2022-07-18T01:32:14;95639.41;;;22.51;31.62
10832;BME280;5469;48.574;8.768;2022-07-18T01:34:58;95635.72;;;22.56;31.54
10832;BME280;5469;48.574;8.768;2022-07-18T01:37:36;95641.91;;;22.35;31.51
10832;BME280;5469;48.574;8.768;2022-07-18T01:40:11;95634.88;;;22.43;31.54
10832;BME280;5469;48.574;8.768;2022-07-18T01:42:51;95645.19;;;22.41;31.72
10832;BME280;5469;48.574;8.768;2022-07-18T01:45:27;95633.09;;;22.26;32.04
10832;BME280;5469;48.574;8.768;2022-07-18T01:48:02;95644.28;;;22.37;31.66
10832;BME280;5469;48.574;8.768;2022-07-18T01:50:42;95637.91;;;22.41;31.77
10832;BME280;5469;48.574;8.768;2022-07-18T01:53:18;95644.28;;;22.37;31.72
10832;BME280;5469;48.574;8.768;2022-07-18T01:55:52;95632.94;;;22.22;31.67
10832;BME280;5469;48.574;8.768;2022-07-18T01:58:30;95639.00;;;22.19;31.74
10832;BME280;5469;48.574;8.768;2022-07-18T02:01:08;95642.22;;;22.04;31.98
10832;BME280;5469;48.574;8.768;2022-07-18T02:03:51;95634.66;;;21.89;32.31
10832;BME280;5469;48.574;8.768;2022-07-18T02:06:24;95628.91;;;21.99;31.99
10832;BME280;5469;48.574;8.768;2022-07-18T02:09:05;95635.59;;;21.93;32.34
10832;BME280;5469;48.574;8.768;2022-07-18T02:11:39;95626.84;;;21.66;32.70
10832;BME280;5469;48.574;8.768;2022-07-18T02:14:13;95633.16;;;21.70;32.39
10832;BME280;5469;48.574;8.768;2022-07-18T02:16:52;95623.63;;;21.73;32.23
10832;BME280;5469;48.574;8.768;2022-07-18T02:19:28;95629.44;;;21.36;33.24
10832;BME280;5469;48.574;8.768;2022-07-18T02:22:11;95626.88;;;21.49;32.91
10832;BME280;5469;48.574;8.768;2022-07-18T02:24:53;95630.38;;;21.49;32.89
10832;BME280;5469;48.574;8.768;2022-07-18T02:27:32;95628.16;;;21.43;32.89
10832;BME280;5469;48.574;8.768;2022-07-18T02:30:17;95626.75;;;21.28;33.10
10832;BME280;5469;48.574;8.768;2022-07-18T02:32:51;95632.78;;;21.16;33.40
10832;BME280;5469;48.574;8.768;2022-07-18T02:35:24;95629.13;;;21.29;33.15
10832;BME280;5469;48.574;8.768;2022-07-18T02:38:01;95632.47;;;21.44;32.69
10832;BME280;5469;48.574;8.768;2022-07-18T02:40:38;95634.56;;;21.12;33.28
10832;BME280;5469;48.574;8.768;2022-07-18T02:43:12;95638.34;;;21.28;32.70
10832;BME280;5469;48.574;8.768;2022-07-18T02:45:46;95629.28;;;21.24;32.77
10832;BME280;5469;48.574;8.768;2022-07-18T02:48:33;95632.94;;;21.28;32.64
10832;BME280;5469;48.574;8.768;2022-07-18T02:51:07;95626.59;;;21.24;32.53
10832;BME280;5469;48.574;8.768;2022-07-18T02:54:29;95634.69;;;21.42;32.38
10832;BME280;5469;48.574;8.768;2022-07-18T02:56:46;95632.78;;;21.33;32.43
10832;BME280;5469;48.574;8.768;2022-07-18T02:59:29;95635.81;;;21.06;32.99
10832;BME280;5469;48.574;8.768;2022-07-18T03:02:06;95631.72;;;20.65;33.22
10832;BME280;5469;48.574;8.768;2022-07-18T03:04:40;95627.59;;;20.59;33.18
10832;BME280;5469;48.574;8.768;2022-07-18T03:07:20;95631.56;;;20.70;33.57
10832;BME280;5469;48.574;8.768;2022-07-18T03:09:57;95632.66;;;21.04;32.92
10832;BME280;5469;48.574;8.768;2022-07-18T03:12:32;95631.69;;;21.17;32.65
10832;BME280;5469;48.574;8.768;2022-07-18T03:15:09;95637.72;;;21.14;32.47
10832;BME280;5469;48.574;8.768;2022-07-18T03:17:43;95627.88;;;21.18;32.32
10832;BME280;5469;48.574;8.768;2022-07-18T03:20:27;95626.16;;;21.05;32.60
10832;BME280;5469;48.574;8.768;2022-07-18T03:23:06;95625.69;;;21.03;32.33
10832;BME280;5469;48.574;8.768;2022-07-18T03:25:40;95625.81;;;21.06;32.42
10832;BME280;5469;48.574;8.768;2022-07-18T03:28:16;95623.31;;;21.10;32.37
10832;BME280;5469;48.574;8.768;2022-07-18T03:30:51;95633.63;;;20.90;32.55
10832;BME280;5469;48.574;8.768;2022-07-18T03:33:34;95633.94;;;20.98;32.73
10832;BME280;5469;48.574;8.768;2022-07-18T03:36:08;95631.41;;;20.75;32.95
10832;BME280;5469;48.574;8.768;2022-07-18T03:38:55;95630.63;;;20.66;32.91
10832;BME280;5469;48.574;8.768;2022-07-18T03:41:31;95633.78;;;20.77;32.75
10832;BME280;5469;48.574;8.768;2022-07-18T03:44:17;95631.56;;;20.70;32.78
10832;BME280;5469;48.574;8.768;2022-07-18T03:46:57;95633.66;;;20.73;32.89
10832;BME280;5469;48.574;8.768;2022-07-18T03:49:35;95627.63;;;20.76;32.87
10832;BME280;5469;48.574;8.768;2022-07-18T03:52:17;95633.97;;;20.63;33.19
10832;BME280;5469;48.574;8.768;2022-07-18T03:55:05;95628.72;;;20.58;33.12
10832;BME280;5469;48.574;8.768;2022-07-18T03:57:41;95627.25;;;20.51;33.12
10832;BME280;5469;48.574;8.768;2022-07-18T04:00:30;95633.63;;;20.56;33.01
10832;BME280;5469;48.574;8.768;2022-07-18T04:03:09;95629.50;;;20.67;32.82
10832;BME280;5469;48.574;8.768;2022-07-18T04:05:46;95626.31;;;20.47;33.49
10832;BME280;5469;48.574;8.768;2022-07-18T04:08:23;95629.63;;;20.53;33.20
10832;BME280;5469;48.574;8.768;2022-07-18T04:11:26;95628.66;;;20.49;32.92
10832;BME280;5469;48.574;8.768;2022-07-18T04:14:25;95622.81;;;20.38;33.12
10832;BME280;5469;48.574;8.768;2022-07-18T04:17:01;95619.63;;;20.36;33.33
10832;BME280;5469;48.574;8.768;2022-07-18T04:19:35;95632.00;;;20.37;33.37
10832;BME280;5469;48.574;8.768;2022-07-18T04:22:14;95625.00;;;20.27;33.24
10832;BME280;5469;48.574;8.768;2022-07-18T04:24:51;95628.53;;;20.45;33.01
10832;BME280;5469;48.574;8.768;2022-07-18T04:27:47;95629.03;;;20.56;32.93
10832;BME280;5469;48.574;8.768;2022-07-18T04:30:37;95622.03;;;20.38;33.50
10832;BME280;5469;48.574;8.768;2022-07-18T04:33:14;95619.97;;;20.43;33.08
10832;BME280;5469;48.574;8.768;2022-07-18T04:35:50;95621.84;;;20.51;33.18
10832;BME280;5469;48.574;8.768;2022-07-18T04:38:32;95611.56;;;20.36;33.83
10832;BME280;5469;48.574;8.768;2022-07-18T04:41:09;95621.88;;;20.34;33.98
10832;BME280;5469;48.574;8.768;2022-07-18T04:43:42;95619.50;;;20.50;33.57
10832;BME280;5469;48.574;8.768;2022-07-18T04:46:16;95621.56;;;20.44;33.98
10832;BME280;5469;48.574;8.768;2022-07-18T04:48:51;95621.56;;;20.44;34.21
10832;BME280;5469;48.574;8.768;2022-07-18T04:51:24;95616.78;;;20.41;34.15
10832;BME280;5469;48.574;8.768;2022-07-18T04:53:58;95616.84;;;20.59;33.45
10832;BME280;5469;48.574;8.768;2022-07-18T04:56:31;95621.28;;;20.55;34.21
10832;BME280;5469;48.574;8.768;2022-07-18T04:59:04;95622.16;;;20.41;34.21
10832;BME280;5469;48.574;8.768;2022-07-18T05:01:38;95628.84;;;20.52;33.97
10832;BME280;5469;48.574;8.768;2022-07-18T05:04:12;95626.03;;;20.58;34.04
10832;BME280;5469;48.574;8.768;2022-07-18T05:06:46;95628.84;;;20.52;34.35
10832;BME280;5469;48.574;8.768;2022-07-18T05:09:19;95631.41;;;20.58;34.23
10832;BME280;5469;48.574;8.768;2022-07-18T05:11:53;95630.56;;;20.48;34.36
10832;BME280;5469;48.574;8.768;2022-07-18T05:14:26;95625.88;;;20.63;34.29
10832;BME280;5469;48.574;8.768;2022-07-18T05:16:59;95625.72;;;20.68;34.03
10832;BME280;5469;48.574;8.768;2022-07-18T05:19:34;95618.66;;;20.15;35.11
10832;BME280;5469;48.574;8.768;2022-07-18T05:22:08;95617.59;;;20.42;35.26
10832;BME280;5469;48.574;8.768;2022-07-18T05:24:41;95619.03;;;20.57;34.63
10832;BME280;5469;48.574;8.768;2022-07-18T05:27:15;95616.63;;;20.38;34.96
10832;BME280;5469;48.574;8.768;2022-07-18T05:29:48;95620.34;;;20.68;35.05
10832;BME280;5469;48.574;8.768;2022-07-18T05:32:22;95620.47;;;20.80;34.01
10832;BME280;5469;48.574;8.768;2022-07-18T05:34:57;95624.28;;;20.88;34.37
10832;BME280;5469;48.574;8.768;2022-07-18T05:37:30;95620.31;;;20.85;34.64
10832;BME280;5469;48.574;8.768;2022-07-18T05:40:06;95624.59;;;20.95;34.27
10832;BME280;5469;48.574;8.768;2022-07-18T05:42:40;95628.22;;;21.08;34.44
10832;BME280;5469;48.574;8.768;2022-07-18T05:45:13;95619.66;;;21.06;33.97
10832;BME280;5469;48.574;8.768;2022-07-18T05:47:47;95632.97;;;21.11;34.30
10832;BME280;5469;48.574;8.768;2022-07-18T05:50:23;95629.47;;;21.19;34.23
10832;BME280;5469;48.574;8.768;2022-07-18T05:52:56;95633.28;;;21.01;33.99
10832;BME280;5469;48.574;8.768;2022-07-18T05:55:30;95623.63;;;21.00;33.36
10832;BME280;5469;48.574;8.768;2022-07-18T05:58:04;95626.47;;;21.03;32.79
10832;BME280;5469;48.574;8.768;2022-07-18T06:00:37;95628.84;;;21.22;32.97
10832;BME280;5469;48.574;8.768;2022-07-18T06:03:11;95622.66;;;21.13;32.38
10832;BME280;5469;48.574;8.768;2022-07-18T06:05:46;95628.38;;;21.20;32.93
10832;BME280;5469;48.574;8.768;2022-07-18T06:08:19;95631.97;;;21.42;32.79
10832;BME280;5469;48.574;8.768;2022-07-18T06:10:53;95630.34;;;21.58;32.39
10832;BME280;5469;48.574;8.768;2022-07-18T06:13:26;95628.13;;;21.60;32.01
10832;BME280;5469;48.574;8.768;2022-07-18T06:15:59;95634.28;;;21.60;32.15
10832;BME280;5469;48.574;8.768;2022-07-18T06:18:33;95627.88;;;21.74;32.26
10832;BME280;5469;48.574;8.768;2022-07-18T06:21:08;95629.63;;;21.78;31.54
10832;BME280;5469;48.574;8.768;2022-07-18T06:23:42;95628.06;;;21.77;33.52
10832;BME280;5469;48.574;8.768;2022-07-18T06:26:15;95624.22;;;21.78;33.09
10832;BME280;5469;48.574;8.768;2022-07-18T06:28:48;95623.22;;;21.92;32.63
10832;BME280;5469;48.574;8.768;2022-07-18T06:31:22;95622.22;;;22.05;31.95
10832;BME280;5469;48.574;8.768;2022-07-18T06:33:56;95624.34;;;22.20;32.52
10832;BME280;5469;48.574;8.768;2022-07-18T06:36:31;95621.81;;;22.24;32.75
10832;BME280;5469;48.574;8.768;2022-07-18T06:39:04;95622.88;;;22.32;32.41
10832;BME280;5469;48.574;8.768;2022-07-18T06:41:42;95627.69;;;22.47;32.39
10832;BME280;5469;48.574;8.768;2022-07-18T06:44:16;95627.94;;;22.54;32.37
10832;BME280;5469;48.574;8.768;2022-07-18T06:46:50;95632.72;;;22.57;33.56
10832;BME280;5469;48.574;8.768;2022-07-18T06:49:24;95632.38;;;22.59;33.00
10832;BME280;5469;48.574;8.768;2022-07-18T06:51:59;95625.00;;;22.68;33.00
10832;BME280;5469;48.574;8.768;2022-07-18T06:54:32;95622.13;;;22.85;32.94
10832;BME280;5469;48.574;8.768;2022-07-18T06:57:08;95629.06;;;22.95;34.29
10832;BME280;5469;48.574;8.768;2022-07-18T06:59:43;95627.81;;;23.14;33.38
10832;BME280;5469;48.574;8.768;2022-07-18T07:02:16;95624.78;;;23.15;32.73
10832;BME280;5469;48.574;8.768;2022-07-18T07:04:50;95635.84;;;23.22;32.35
10832;BME280;5469;48.574;8.768;2022-07-18T07:07:25;95625.81;;;23.23;31.83
10832;BME280;5469;48.574;8.768;2022-07-18T07:10:00;95629.56;;;23.30;32.34
10832;BME280;5469;48.574;8.768;2022-07-18T07:12:38;95624.66;;;23.57;31.92
10832;BME280;5469;48.574;8.768;2022-07-18T07:15:13;95636.03;;;23.50;31.50
10832;BME280;5469;48.574;8.768;2022-07-18T07:17:48;95626.34;;;23.62;31.94
10832;BME280;5469;48.574;8.768;2022-07-18T07:20:21;95629.44;;;23.85;33.24
10832;BME280;5469;48.574;8.768;2022-07-18T07:22:57;95617.13;;;23.99;33.76
10832;BME280;5469;48.574;8.768;2022-07-18T07:25:34;95631.81;;;24.11;33.32
10832;BME280;5469;48.574;8.768;2022-07-18T07:28:08;95632.47;;;24.20;33.66
10832;BME280;5469;48.574;8.768;2022-07-18T07:30:41;95630.00;;;24.27;34.27
10832;BME280;5469;48.574;8.768;2022-07-18T07:33:15;95625.50;;;24.31;35.14
10832;BME280;5469;48.574;8.768;2022-07-18T07:35:49;95625.94;;;24.46;34.28
10832;BME280;5469;48.574;8.768;2022-07-18T07:38:24;95628.41;;;24.51;33.31
10832;BME280;5469;48.574;8.768;2022-07-18T07:41:00;95623.19;;;24.70;34.07
10832;BME280;5469;48.574;8.768;2022-07-18T07:43:34;95627.66;;;24.78;34.41
10832;BME280;5469;48.574;8.768;2022-07-18T07:46:10;95633.47;;;24.93;33.20
10832;BME280;5469;48.574;8.768;2022-07-18T07:48:44;95633.78;;;24.75;33.00
10832;BME280;5469;48.574;8.768;2022-07-18T07:51:19;95633.00;;;25.03;33.55
10832;BME280;5469;48.574;8.768;2022-07-18T07:53:54;95626.16;;;25.21;32.92
10832;BME280;5469;48.574;8.768;2022-07-18T07:56:28;95628.38;;;25.32;32.48
10832;BME280;5469;48.574;8.768;2022-07-18T07:59:01;95624.94;;;25.19;32.84
10832;BME280;5469;48.574;8.768;2022-07-18T08:01:35;95626.03;;;25.30;33.55
10832;BME280;5469;48.574;8.768;2022-07-18T08:04:08;95611.06;;;25.52;32.84
10832;BME280;5469;48.574;8.768;2022-07-18T08:06:42;95621.75;;;25.45;32.54
10832;BME280;5469;48.574;8.768;2022-07-18T08:09:17;95614.41;;;25.61;32.23
10832;BME280;5469;48.574;8.768;2022-07-18T08:11:50;95618.88;;;25.69;32.10
10832;BME280;5469;48.574;8.768;2022-07-18T08:14:24;95622.47;;;25.74;32.15
10832;BME280;5469;48.574;8.768;2022-07-18T08:16:57;95613.38;;;25.82;31.79
10832;BME280;5469;48.574;8.768;2022-07-18T08:19:31;95613.97;;;26.07;31.69
10832;BME280;5469;48.574;8.768;2022-07-18T08:22:04;95603.56;;;25.93;31.89
10832;BME280;5469;48.574;8.768;2022-07-18T08:24:39;95613.53;;;26.21;31.21
10832;BME280;5469;48.574;8.768;2022-07-18T08:27:13;95613.19;;;26.06;31.21
10832;BME280;5469;48.574;8.768;2022-07-18T08:29:46;95614.72;;;26.39;30.64
10832;BME280;5469;48.574;8.768;2022-07-18T08:32:20;95615.09;;;26.22;30.56
10832;BME280;5469;48.574;8.768;2022-07-18T08:34:53;95617.00;;;26.37;30.18
10832;BME280;5469;48.574;8.768;2022-07-18T08:37:27;95628.47;;;26.46;28.36
10832;BME280;5469;48.574;8.768;2022-07-18T08:40:02;95620.63;;;26.61;29.86
10832;BME280;5469;48.574;8.768;2022-07-18T08:42:36;95620.38;;;26.85;28.96
10832;BME280;5469;48.574;8.768;2022-07-18T08:45:10;95620.94;;;26.75;28.59
10832;BME280;5469;48.574;8.768;2022-07-18T08:47:44;95617.88;;;26.96;29.21
10832;BME280;5469;48.574;8.768;2022-07-18T08:50:18;95624.75;;;27.09;28.37
10832;BME280;5469;48.574;8.768;2022-07-18T08:52:51;95618.22;;;27.14;28.04
10832;BME280;5469;48.574;8.768;2022-07-18T08:55:26;95625.63;;;27.56;26.18
10832;BME280;5469;48.574;8.768;2022-07-18T08:57:59;95619.53;;;27.20;27.97
10832;BME280;5469;48.574;8.768;2022-07-18T09:00:34;95614.88;;;27.63;27.47
10832;BME280;5469;48.574;8.768;2022-07-18T09:03:07;95615.38;;;27.49;25.69
10832;BME280;5469;48.574;8.768;2022-07-18T09:05:41;95613.91;;;27.13;24.43
10832;BME280;5469;48.574;8.768;2022-07-18T09:08:16;95612.81;;;27.79;26.76
10832;BME280;5469;48.574;8.768;2022-07-18T09:10:55;95613.31;;;28.12;26.81
10832;BME280;5469;48.574;8.768;2022-07-18T09:13:36;95610.66;;;28.15;26.19
10832;BME280;5469;48.574;8.768;2022-07-18T09:16:11;95628.50;;;28.36;24.88
10832;BME280;5469;48.574;8.768;2022-07-18T09:18:46;95624.13;;;28.54;24.20
10832;BME280;5469;48.574;8.768;2022-07-18T09:21:22;95625.22;;;28.80;25.30
10832;BME280;5469;48.574;8.768;2022-07-18T09:23:55;95626.38;;;28.79;25.37
10832;BME280;5469;48.574;8.768;2022-07-18T09:26:38;95625.69;;;28.55;25.49
10832;BME280;5469;48.574;8.768;2022-07-18T09:29:14;95630.28;;;28.51;25.09
10832;BME280;5469;48.574;8.768;2022-07-18T09:31:49;95627.75;;;28.95;25.52
10832;BME280;5469;48.574;8.768;2022-07-18T09:34:33;95623.00;;;28.89;25.66
10832;BME280;5469;48.574;8.768;2022-07-18T09:37:10;95618.72;;;29.22;25.00
10832;BME280;5469;48.574;8.768;2022-07-18T09:39:44;95620.16;;;29.08;25.57
10832;BME280;5469;48.574;8.768;2022-07-18T09:42:19;95617.59;;;29.64;25.66
10832;BME280;5469;48.574;8.768;2022-07-18T09:44:57;95617.81;;;29.10;25.03
10832;BME280;5469;48.574;8.768;2022-07-18T09:47:31;95614.16;;;29.33;24.12
10832;BME280;5469;48.574;8.768;2022-07-18T09:50:19;95610.88;;;29.57;25.27
10832;BME280;5469;48.574;8.768;2022-07-18T09:52:58;95607.38;;;29.98;24.27
10832;BME280;5469;48.574;8.768;2022-07-18T09:55:32;95608.81;;;29.44;23.97
10832;BME280;5469;48.574;8.768;2022-07-18T09:58:08;95601.34;;;29.78;23.44
10832;BME280;5469;48.574;8.768;2022-07-18T10:00:43;95597.69;;;30.70;23.89
10832;BME280;5469;48.574;8.768;2022-07-18T10:03:18;95603.66;;;30.86;23.13
10832;BME280;5469;48.574;8.768;2022-07-18T10:05:52;95606.97;;;31.39;22.52
10832;BME280;5469;48.574;8.768;2022-07-18T10:08:28;95610.53;;;32.50;22.48
10832;BME280;5469;48.574;8.768;2022-07-18T10:11:03;95607.84;;;32.25;21.56
10832;BME280;5469;48.574;8.768;2022-07-18T10:13:39;95605.31;;;32.92;20.54
10832;BME280;5469;48.574;8.768;2022-07-18T10:16:13;95611.25;;;32.83;20.07
10832;BME280;5469;48.574;8.768;2022-07-18T10:18:46;95608.50;;;33.64;19.37
10832;BME280;5469;48.574;8.768;2022-07-18T10:21:20;95605.06;;;34.50;20.34
10832;BME280;5469;48.574;8.768;2022-07-18T10:23:55;95608.59;;;34.05;19.32
10832;BME280;5469;48.574;8.768;2022-07-18T10:26:29;95605.94;;;35.15;19.42
10832;BME280;5469;48.574;8.768;2022-07-18T10:29:14;95610.41;;;35.33;18.97
10832;BME280;5469;48.574;8.768;2022-07-18T10:32:02;95615.94;;;35.33;17.06
10832;BME280;5469;48.574;8.768;2022-07-18T10:34:37;95612.44;;;36.57;16.47
10832;BME280;5469;48.574;8.768;2022-07-18T10:37:12;95613.22;;;36.11;16.55
10832;BME280;5469;48.574;8.768;2022-07-18T10:39:45;95608.72;;;36.87;17.34
10832;BME280;5469;48.574;8.768;2022-07-18T10:42:20;95611.56;;;37.04;16.99
10832;BME280;5469;48.574;8.768;2022-07-18T10:45:22;95606.25;;;36.49;16.67
10832;BME280;5469;48.574;8.768;2022-07-18T10:51:33;95600.16;;;37.58;16.43
10832;BME280;5469;48.574;8.768;2022-07-18T10:54:10;95597.03;;;37.56;15.58
10832;BME280;5469;48.574;8.768;2022-07-18T10:57:09;95600.50;;;37.60;15.79
10832;BME280;5469;48.574;8.768;2022-07-18T10:59:59;95600.84;;;37.62;15.31
10832;BME280;5469;48.574;8.768;2022-07-18T11:02:36;95606.66;;;37.48;15.06
10832;BME280;5469;48.574;8.768;2022-07-18T11:05:33;95598.59;;;37.90;15.58
10832;BME280;5469;48.574;8.768;2022-07-18T11:08:18;95598.06;;;39.44;14.44
10832;BME280;5469;48.574;8.768;2022-07-18T11:11:11;95589.47;;;38.09;15.21
10832;BME280;5469;48.574;8.768;2022-07-18T11:13:47;95591.88;;;35.91;15.30
10832;BME280;5469;48.574;8.768;2022-07-18T11:16:24;95593.84;;;35.36;15.09
10832;BME280;5469;48.574;8.768;2022-07-18T11:19:19;95585.25;;;35.85;14.98
10832;BME280;5469;48.574;8.768;2022-07-18T11:21:58;95582.28;;;37.43;14.01
10832;BME280;5469;48.574;8.768;2022-07-18T11:24:32;95588.94;;;37.98;14.43
10832;BME280;5469;48.574;8.768;2022-07-18T11:27:06;95587.22;;;38.04;15.40
10832;BME280;5469;48.574;8.768;2022-07-18T11:29:40;95571.91;;;38.61;15.09
10832;BME280;5469;48.574;8.768;2022-07-18T11:32:20;95571.72;;;38.23;14.96
10832;BME280;5469;48.574;8.768;2022-07-18T11:34:55;95569.25;;;38.71;14.47
10832;BME280;5469;48.574;8.768;2022-07-18T11:37:29;95570.22;;;38.51;15.11
10832;BME280;5469;48.574;8.768;2022-07-18T11:40:06;95567.66;;;37.62;14.66
10832;BME280;5469;48.574;8.768;2022-07-18T11:42:40;95564.84;;;37.46;14.33
10832;BME280;5469;48.574;8.768;2022-07-18T11:45:16;95559.63;;;39.04;14.84
10832;BME280;5469;48.574;8.768;2022-07-18T11:47:50;95556.50;;;38.89;13.25
10832;BME280;5469;48.574;8.768;2022-07-18T11:50:36;95557.78;;;37.08;14.51
10832;BME280;5469;48.574;8.768;2022-07-18T11:53:10;95545.22;;;37.40;14.44
10832;BME280;5469;48.574;8.768;2022-07-18T11:55:44;95543.81;;;39.18;15.87
10832;BME280;5469;48.574;8.768;2022-07-18T11:58:18;95545.59;;;37.58;14.55
10832;BME280;5469;48.574;8.768;2022-07-18T12:00:58;95540.47;;;39.23;15.27
10832;BME280;5469;48.574;8.768;2022-07-18T12:03:34;95543.94;;;38.85;14.61
10832;BME280;5469;48.574;8.768;2022-07-18T12:06:16;95535.91;;;39.03;14.97
10832;BME280;5469;48.574;8.768;2022-07-18T12:08:51;95535.34;;;39.08;14.29
10832;BME280;5469;48.574;8.768;2022-07-18T12:11:27;95537.97;;;38.57;15.23
10832;BME280;5469;48.574;8.768;2022-07-18T12:14:02;95549.63;;;40.22;14.84
10832;BME280;5469;48.574;8.768;2022-07-18T12:16:38;95542.84;;;40.23;13.22
10832;BME280;5469;48.574;8.768;2022-07-18T12:19:14;95549.69;;;39.84;15.81
10832;BME280;5469;48.574;8.768;2022-07-18T12:21:52;95537.44;;;40.86;13.96
10832;BME280;5469;48.574;8.768;2022-07-18T12:24:29;95544.78;;;41.23;14.18
10832;BME280;5469;48.574;8.768;2022-07-18T12:27:18;95540.78;;;42.24;13.86
10832;BME280;5469;48.574;8.768;2022-07-18T12:30:06;95536.78;;;41.03;13.86
10832;BME280;5469;48.574;8.768;2022-07-18T12:32:45;95537.59;;;41.44;13.35
10832;BME280;5469;48.574;8.768;2022-07-18T12:35:20;95533.38;;;41.31;13.65
10832;BME280;5469;48.574;8.768;2022-07-18T12:37:57;95533.50;;;42.26;14.79
10832;BME280;5469;48.574;8.768;2022-07-18T12:40:42;95532.72;;;42.81;11.97
10832;BME280;5469;48.574;8.768;2022-07-18T12:43:22;95529.53;;;41.06;12.46
10832;BME280;5469;48.574;8.768;2022-07-18T12:45:57;95524.19;;;42.02;13.87
10832;BME280;5469;48.574;8.768;2022-07-18T12:48:32;95520.91;;;41.85;13.91
10832;BME280;5469;48.574;8.768;2022-07-18T12:51:07;95525.63;;;42.43;13.72
10832;BME280;5469;48.574;8.768;2022-07-18T12:53:43;95517.84;;;40.10;14.79
10832;BME280;5469;48.574;8.768;2022-07-18T12:56:16;95517.81;;;41.83;14.31
10832;BME280;5469;48.574;8.768;2022-07-18T12:58:50;95515.03;;;41.83;13.49
10832;BME280;5469;48.574;8.768;2022-07-18T13:01:23;95518.06;;;40.51;13.99
10832;BME280;5469;48.574;8.768;2022-07-18T13:03:57;95513.34;;;42.13;13.68
10832;BME280;5469;48.574;8.768;2022-07-18T13:06:31;95518.66;;;42.39;13.82
10832;BME280;5469;48.574;8.768;2022-07-18T13:09:05;95511.47;;;41.42;14.44
10832;BME280;5469;48.574;8.768;2022-07-18T13:11:39;95507.84;;;41.63;12.67
10832;BME280;5469;48.574;8.768;2022-07-18T13:14:16;95517.81;;;39.88;13.71
10832;BME280;5469;48.574;8.768;2022-07-18T13:16:49;95512.41;;;38.53;14.61
10832;BME280;5469;48.574;8.768;2022-07-18T13:19:24;95511.38;;;38.01;15.31
10832;BME280;5469;48.574;8.768;2022-07-18T13:21:58;95515.94;;;40.20;14.51
10832;BME280;5469;48.574;8.768;2022-07-18T13:24:33;95512.25;;;41.42;14.80
10832;BME280;5469;48.574;8.768;2022-07-18T13:27:08;95504.25;;;42.03;13.55
10832;BME280;5469;48.574;8.768;2022-07-18T13:29:42;95506.88;;;42.16;13.63
10832;BME280;5469;48.574;8.768;2022-07-18T13:32:15;95510.22;;;41.43;14.07
10832;BME280;5469;48.574;8.768;2022-07-18T13:34:49;95501.13;;;42.10;14.36
10832;BME280;5469;48.574;8.768;2022-07-18T13:37:22;95508.63;;;43.54;13.82
10832;BME280;5469;48.574;8.768;2022-07-18T13:39:57;95499.25;;;43.66;12.56
10832;BME280;5469;48.574;8.768;2022-07-18T13:42:31;95495.97;;;44.01;11.75
10832;BME280;5469;48.574;8.768;2022-07-18T13:45:06;95492.31;;;43.86;12.70
10832;BME280;5469;48.574;8.768;2022-07-18T13:47:39;95492.31;;;43.86;12.70
10832;BME280;5469;48.574;8.768;2022-07-18T13:50:13;95485.75;;;40.44;13.04
10832;BME280;5469;48.574;8.768;2022-07-18T13:52:46;95483.03;;;40.75;13.03
10832;BME280;5469;48.574;8.768;2022-07-18T13:55:21;95483.22;;;42.11;14.39
10832;BME280;5469;48.574;8.768;2022-07-18T13:57:55;95483.81;;;42.52;13.36
10832;BME280;5469;48.574;8.768;2022-07-18T14:00:29;64575.81;;;-144.83;17.34
10832;BME280;5469;48.574;8.768;2022-07-18T14:03:02;95467.31;;;43.67;13.76
10832;BME280;5469;48.574;8.768;2022-07-18T14:05:38;95481.38;;;43.49;13.19
10832;BME280;5469;48.574;8.768;2022-07-18T14:08:12;95473.88;;;42.79;14.10